sensor_id;sensor_type;location;lat;lon;timestamp;temperature;humidity
54429;DHT22;40337;52.978;6.310;2024-02-04T00:00:25;8.50;99.90
54429;DHT22;40337;52.978;6.310;2024-02-04T00:02:50;8.40;99.90
54429;DHT22;40337;52.978;6.310;2024-02-04T00:05:16;8.40;99.90
54429;DHT22;40337;52.978;6.310;2024-02-04T00:07:44;8.40;99.90
54429;DHT22;40337;52.978;6.310;2024-02-04T00:10:09;8.40;99.90
54429;DHT22;40337;52.978;6.310;2024-02-04T00:12:35;8.40;99.90
54429;DHT22;40337;52.978;6.310;2024-02-04T00:15:01;8.30;99.90
54429;DHT22;40337;52.978;6.310;2024-02-04T00:17:30;8.30;99.90
54429;DHT22;40337;52.978;6.310;2024-02-04T00:19:58;8.30;99.90
54429;DHT22;40337;52.978;6.310;2024-02-04T00:22:24;8.30;99.90
54429;DHT22;40337;52.978;6.310;2024-02-04T00:24:50;8.30;99.90
54429;DHT22;40337;52.978;6.310;2024-02-04T00:27:16;8.20;99.90
54429;DHT22;40337;52.978;6.310;2024-02-04T00:29:41;8.20;99.90
54429;DHT22;40337;52.978;6.310;2024-02-04T00:32:07;8.20;99.90
54429;DHT22;40337;52.978;6.310;2024-02-04T00:34:33;8.20;99.90
54429;DHT22;40337;52.978;6.310;2024-02-04T00:36:58;8.10;99.90
54429;DHT22;40337;52.978;6.310;2024-02-04T00:39:26;8.10;99.90
54429;DHT22;40337;52.978;6.310;2024-02-04T00:41:51;8.10;99.90
54429;DHT22;40337;52.978;6.310;2024-02-04T00:44:17;8.00;99.90
54429;DHT22;40337;52.978;6.310;2024-02-04T00:46:44;8.00;99.90
54429;DHT22;40337;52.978;6.310;2024-02-04T00:49:22;7.90;99.90
54429;DHT22;40337;52.978;6.310;2024-02-04T00:51:48;7.90;99.90
54429;DHT22;40337;52.978;6.310;2024-02-04T00:54:13;7.90;99.90
54429;DHT22;40337;52.978;6.310;2024-02-04T00:56:39;7.80;99.90
54429;DHT22;40337;52.978;6.310;2024-02-04T00:59:05;7.80;99.90
54429;DHT22;40337;52.978;6.310;2024-02-04T01:01:30;7.80;99.90
54429;DHT22;40337;52.978;6.310;2024-02-04T01:03:56;7.70;99.90
54429;DHT22;40337;52.978;6.310;2024-02-04T01:06:21;7.80;99.90
54429;DHT22;40337;52.978;6.310;2024-02-04T01:08:47;7.70;99.90
54429;DHT22;40337;52.978;6.310;2024-02-04T01:11:13;7.70;99.90
54429;DHT22;40337;52.978;6.310;2024-02-04T01:13:38;7.70;99.90
54429;DHT22;40337;52.978;6.310;2024-02-04T01:16:04;7.70;99.90
54429;DHT22;40337;52.978;6.310;2024-02-04T01:18:30;7.70;99.90
54429;DHT22;40337;52.978;6.310;2024-02-04T01:20:57;7.70;99.90
54429;DHT22;40337;52.978;6.310;2024-02-04T01:23:22;7.60;99.90
54429;DHT22;40337;52.978;6.310;2024-02-04T01:25:48;7.60;99.90
54429;DHT22;40337;52.978;6.310;2024-02-04T01:28:13;7.60;99.90
54429;DHT22;40337;52.978;6.310;2024-02-04T01:30:39;7.60;99.90
54429;DHT22;40337;52.978;6.310;2024-02-04T01:33:05;7.60;99.90
54429;DHT22;40337;52.978;6.310;2024-02-04T01:35:30;7.60;99.90
54429;DHT22;40337;52.978;6.310;2024-02-04T01:37:56;7.60;99.90
54429;DHT22;40337;52.978;6.310;2024-02-04T01:40:21;7.60;99.90
54429;DHT22;40337;52.978;6.310;2024-02-04T01:42:47;7.60;99.90
54429;DHT22;40337;52.978;6.310;2024-02-04T01:45:13;7.60;99.90
54429;DHT22;40337;52.978;6.310;2024-02-04T01:47:38;7.60;99.90
54429;DHT22;40337;52.978;6.310;2024-02-04T01:50:05;7.60;99.90
54429;DHT22;40337;52.978;6.310;2024-02-04T01:52:36;7.60;99.90
54429;DHT22;40337;52.978;6.310;2024-02-04T01:55:20;7.50;99.90
54429;DHT22;40337;52.978;6.310;2024-02-04T01:57:48;7.50;99.90
54429;DHT22;40337;52.978;6.310;2024-02-04T02:00:15;7.50;99.90
54429;DHT22;40337;52.978;6.310;2024-02-04T02:02:41;7.50;99.90
54429;DHT22;40337;52.978;6.310;2024-02-04T02:05:08;7.60;99.90
54429;DHT22;40337;52.978;6.310;2024-02-04T02:07:34;7.60;99.90
54429;DHT22;40337;52.978;6.310;2024-02-04T02:10:00;7.60;99.90
54429;DHT22;40337;52.978;6.310;2024-02-04T02:12:30;7.60;99.90
54429;DHT22;40337;52.978;6.310;2024-02-04T02:15:18;7.60;99.90
54429;DHT22;40337;52.978;6.310;2024-02-04T02:17:52;7.60;99.90
54429;DHT22;40337;52.978;6.310;2024-02-04T02:23:17;7.60;99.90
54429;DHT22;40337;52.978;6.310;2024-02-04T02:25:47;7.50;99.90
54429;DHT22;40337;52.978;6.310;2024-02-04T02:28:14;7.50;99.90
54429;DHT22;40337;52.978;6.310;2024-02-04T02:30:40;7.50;99.90
54429;DHT22;40337;52.978;6.310;2024-02-04T02:33:06;7.50;99.90
54429;DHT22;40337;52.978;6.310;2024-02-04T02:35:34;7.60;99.90
54429;DHT22;40337;52.978;6.310;2024-02-04T02:38:24;7.50;99.90
54429;DHT22;40337;52.978;6.310;2024-02-04T02:41:04;7.50;99.90
54429;DHT22;40337;52.978;6.310;2024-02-04T02:43:30;7.50;99.90
54429;DHT22;40337;52.978;6.310;2024-02-04T02:45:57;7.50;99.90
54429;DHT22;40337;52.978;6.310;2024-02-04T02:48:24;7.50;99.90
54429;DHT22;40337;52.978;6.310;2024-02-04T02:50:50;7.50;99.90
54429;DHT22;40337;52.978;6.310;2024-02-04T02:53:15;7.50;99.90
54429;DHT22;40337;52.978;6.310;2024-02-04T02:55:44;7.60;99.90
54429;DHT22;40337;52.978;6.310;2024-02-04T02:58:12;7.60;99.90
54429;DHT22;40337;52.978;6.310;2024-02-04T03:00:38;7.60;99.90
54429;DHT22;40337;52.978;6.310;2024-02-04T03:03:04;7.50;99.90
54429;DHT22;40337;52.978;6.310;2024-02-04T03:05:30;7.50;99.90
54429;DHT22;40337;52.978;6.310;2024-02-04T03:07:55;7.50;99.90
54429;DHT22;40337;52.978;6.310;2024-02-04T03:10:21;7.50;99.90
54429;DHT22;40337;52.978;6.310;2024-02-04T03:12:46;7.50;99.90
54429;DHT22;40337;52.978;6.310;2024-02-04T03:15:12;7.50;99.90
54429;DHT22;40337;52.978;6.310;2024-02-04T03:17:38;7.40;99.90
54429;DHT22;40337;52.978;6.310;2024-02-04T03:20:04;7.40;99.90
54429;DHT22;40337;52.978;6.310;2024-02-04T03:22:30;7.40;99.90
54429;DHT22;40337;52.978;6.310;2024-02-04T03:24:55;7.40;99.90
54429;DHT22;40337;52.978;6.310;2024-02-04T03:27:21;7.40;99.90
54429;DHT22;40337;52.978;6.310;2024-02-04T03:29:50;7.40;99.90
54429;DHT22;40337;52.978;6.310;2024-02-04T03:32:15;7.30;99.90
54429;DHT22;40337;52.978;6.310;2024-02-04T03:34:41;7.40;99.90
54429;DHT22;40337;52.978;6.310;2024-02-04T03:37:07;7.40;99.90
54429;DHT22;40337;52.978;6.310;2024-02-04T03:39:33;7.30;99.90
54429;DHT22;40337;52.978;6.310;2024-02-04T03:41:58;7.40;99.90
54429;DHT22;40337;52.978;6.310;2024-02-04T03:44:24;7.30;99.90
54429;DHT22;40337;52.978;6.310;2024-02-04T03:46:50;7.30;99.90
54429;DHT22;40337;52.978;6.310;2024-02-04T03:49:16;7.40;99.90
54429;DHT22;40337;52.978;6.310;2024-02-04T03:51:42;7.30;99.90
54429;DHT22;40337;52.978;6.310;2024-02-04T03:54:07;7.40;99.90
54429;DHT22;40337;52.978;6.310;2024-02-04T03:56:33;7.40;99.90
54429;DHT22;40337;52.978;6.310;2024-02-04T03:58:59;7.40;99.90
54429;DHT22;40337;52.978;6.310;2024-02-04T04:01:24;7.40;99.90
54429;DHT22;40337;52.978;6.310;2024-02-04T04:03:50;7.40;99.90
54429;DHT22;40337;52.978;6.310;2024-02-04T04:06:15;7.40;99.90
54429;DHT22;40337;52.978;6.310;2024-02-04T04:08:41;7.40;99.90
54429;DHT22;40337;52.978;6.310;2024-02-04T04:11:11;7.40;99.90
54429;DHT22;40337;52.978;6.310;2024-02-04T04:13:37;7.40;99.90
54429;DHT22;40337;52.978;6.310;2024-02-04T04:16:04;7.40;99.90
54429;DHT22;40337;52.978;6.310;2024-02-04T04:18:30;7.50;99.90
54429;DHT22;40337;52.978;6.310;2024-02-04T04:20:56;7.50;99.90
54429;DHT22;40337;52.978;6.310;2024-02-04T04:23:21;7.50;99.90
54429;DHT22;40337;52.978;6.310;2024-02-04T04:25:47;7.50;99.90
54429;DHT22;40337;52.978;6.310;2024-02-04T04:28:13;7.50;99.90
54429;DHT22;40337;52.978;6.310;2024-02-04T04:30:38;7.50;99.90
54429;DHT22;40337;52.978;6.310;2024-02-04T04:33:04;7.50;99.90
54429;DHT22;40337;52.978;6.310;2024-02-04T04:35:30;7.60;99.90
54429;DHT22;40337;52.978;6.310;2024-02-04T04:37:55;7.60;99.90
54429;DHT22;40337;52.978;6.310;2024-02-04T04:40:21;7.60;99.90
54429;DHT22;40337;52.978;6.310;2024-02-04T04:42:46;7.60;99.90
54429;DHT22;40337;52.978;6.310;2024-02-04T04:45:12;7.60;99.90
54429;DHT22;40337;52.978;6.310;2024-02-04T04:47:39;7.60;99.90
54429;DHT22;40337;52.978;6.310;2024-02-04T04:50:05;7.60;99.90
54429;DHT22;40337;52.978;6.310;2024-02-04T04:52:31;7.60;99.90
54429;DHT22;40337;52.978;6.310;2024-02-04T04:54:57;7.60;99.90
54429;DHT22;40337;52.978;6.310;2024-02-04T04:57:23;7.60;99.90
54429;DHT22;40337;52.978;6.310;2024-02-04T04:59:48;7.60;99.90
54429;DHT22;40337;52.978;6.310;2024-02-04T05:02:14;7.60;99.90
54429;DHT22;40337;52.978;6.310;2024-02-04T05:04:43;7.60;99.90
54429;DHT22;40337;52.978;6.310;2024-02-04T05:07:10;7.60;99.90
54429;DHT22;40337;52.978;6.310;2024-02-04T05:09:35;7.60;99.90
54429;DHT22;40337;52.978;6.310;2024-02-04T05:12:02;7.60;99.90
54429;DHT22;40337;52.978;6.310;2024-02-04T05:14:47;7.70;99.90
54429;DHT22;40337;52.978;6.310;2024-02-04T05:17:13;7.60;99.90
54429;DHT22;40337;52.978;6.310;2024-02-04T05:19:41;7.70;99.90
54429;DHT22;40337;52.978;6.310;2024-02-04T05:22:07;7.60;99.90
54429;DHT22;40337;52.978;6.310;2024-02-04T05:24:33;7.60;99.90
54429;DHT22;40337;52.978;6.310;2024-02-04T05:26:58;7.60;99.90
54429;DHT22;40337;52.978;6.310;2024-02-04T05:29:24;7.60;99.90
54429;DHT22;40337;52.978;6.310;2024-02-04T05:31:53;7.60;99.90
54429;DHT22;40337;52.978;6.310;2024-02-04T05:34:18;7.60;99.90
54429;DHT22;40337;52.978;6.310;2024-02-04T05:36:44;7.60;99.90
54429;DHT22;40337;52.978;6.310;2024-02-04T05:39:14;7.60;99.90
54429;DHT22;40337;52.978;6.310;2024-02-04T05:41:40;7.60;99.90
54429;DHT22;40337;52.978;6.310;2024-02-04T05:44:07;7.60;99.90
54429;DHT22;40337;52.978;6.310;2024-02-04T05:46:35;7.70;99.90
54429;DHT22;40337;52.978;6.310;2024-02-04T05:49:00;7.60;99.90
54429;DHT22;40337;52.978;6.310;2024-02-04T05:51:27;7.60;99.90
54429;DHT22;40337;52.978;6.310;2024-02-04T05:53:52;7.60;99.90
54429;DHT22;40337;52.978;6.310;2024-02-04T05:56:18;7.60;99.90
54429;DHT22;40337;52.978;6.310;2024-02-04T05:58:46;7.60;99.90
54429;DHT22;40337;52.978;6.310;2024-02-04T06:01:11;7.60;99.90
54429;DHT22;40337;52.978;6.310;2024-02-04T06:03:37;7.60;99.90
54429;DHT22;40337;52.978;6.310;2024-02-04T06:06:03;7.60;99.90
54429;DHT22;40337;52.978;6.310;2024-02-04T06:08:29;7.60;99.90
54429;DHT22;40337;52.978;6.310;2024-02-04T06:10:55;7.60;99.90
54429;DHT22;40337;52.978;6.310;2024-02-04T06:13:20;7.60;99.90
54429;DHT22;40337;52.978;6.310;2024-02-04T06:15:46;7.60;99.90
54429;DHT22;40337;52.978;6.310;2024-02-04T06:18:12;7.70;99.90
54429;DHT22;40337;52.978;6.310;2024-02-04T06:20:37;7.70;99.90
54429;DHT22;40337;52.978;6.310;2024-02-04T06:23:03;7.70;99.90
54429;DHT22;40337;52.978;6.310;2024-02-04T06:25:29;7.80;99.90
54429;DHT22;40337;52.978;6.310;2024-02-04T06:27:54;7.80;99.90
54429;DHT22;40337;52.978;6.310;2024-02-04T06:30:20;7.80;99.90
54429;DHT22;40337;52.978;6.310;2024-02-04T06:32:48;7.80;99.90
54429;DHT22;40337;52.978;6.310;2024-02-04T06:35:14;7.90;99.90
54429;DHT22;40337;52.978;6.310;2024-02-04T06:37:41;7.90;99.90
54429;DHT22;40337;52.978;6.310;2024-02-04T06:40:09;7.90;99.90
54429;DHT22;40337;52.978;6.310;2024-02-04T06:42:35;7.90;99.90
54429;DHT22;40337;52.978;6.310;2024-02-04T06:45:01;8.00;99.90
54429;DHT22;40337;52.978;6.310;2024-02-04T06:47:26;8.00;99.90
54429;DHT22;40337;52.978;6.310;2024-02-04T06:49:52;8.00;99.90
54429;DHT22;40337;52.978;6.310;2024-02-04T06:52:17;8.00;99.90
54429;DHT22;40337;52.978;6.310;2024-02-04T06:54:44;8.00;99.90
54429;DHT22;40337;52.978;6.310;2024-02-04T06:57:09;8.00;99.90
54429;DHT22;40337;52.978;6.310;2024-02-04T06:59:35;8.00;99.90
54429;DHT22;40337;52.978;6.310;2024-02-04T07:02:01;8.00;99.90
54429;DHT22;40337;52.978;6.310;2024-02-04T07:04:26;8.10;99.90
54429;DHT22;40337;52.978;6.310;2024-02-04T07:06:52;8.10;99.90
54429;DHT22;40337;52.978;6.310;2024-02-04T07:09:18;8.10;99.90
54429;DHT22;40337;52.978;6.310;2024-02-04T07:11:44;8.10;99.90
54429;DHT22;40337;52.978;6.310;2024-02-04T07:14:10;8.10;99.90
54429;DHT22;40337;52.978;6.310;2024-02-04T07:16:35;8.10;99.90
54429;DHT22;40337;52.978;6.310;2024-02-04T07:19:01;8.00;99.90
54429;DHT22;40337;52.978;6.310;2024-02-04T07:21:26;8.00;99.90
54429;DHT22;40337;52.978;6.310;2024-02-04T07:23:52;8.00;99.90
54429;DHT22;40337;52.978;6.310;2024-02-04T07:26:17;8.00;99.90
54429;DHT22;40337;52.978;6.310;2024-02-04T07:28:43;8.00;99.90
54429;DHT22;40337;52.978;6.310;2024-02-04T07:31:10;8.00;99.90
54429;DHT22;40337;52.978;6.310;2024-02-04T07:33:35;8.10;99.90
54429;DHT22;40337;52.978;6.310;2024-02-04T07:36:02;8.10;99.90
54429;DHT22;40337;52.978;6.310;2024-02-04T07:38:27;8.10;99.90
54429;DHT22;40337;52.978;6.310;2024-02-04T07:40:53;8.10;99.90
54429;DHT22;40337;52.978;6.310;2024-02-04T07:43:21;8.10;99.90
54429;DHT22;40337;52.978;6.310;2024-02-04T07:45:46;8.10;99.90
54429;DHT22;40337;52.978;6.310;2024-02-04T07:48:12;8.10;99.90
54429;DHT22;40337;52.978;6.310;2024-02-04T07:50:37;8.20;99.90
54429;DHT22;40337;52.978;6.310;2024-02-04T07:53:03;8.20;99.90
54429;DHT22;40337;52.978;6.310;2024-02-04T07:55:29;8.30;99.90
54429;DHT22;40337;52.978;6.310;2024-02-04T07:57:54;8.30;99.90
54429;DHT22;40337;52.978;6.310;2024-02-04T08:00:21;8.30;99.90
54429;DHT22;40337;52.978;6.310;2024-02-04T08:02:46;8.30;99.90
54429;DHT22;40337;52.978;6.310;2024-02-04T08:05:12;8.30;99.90
54429;DHT22;40337;52.978;6.310;2024-02-04T08:07:38;8.40;99.90
54429;DHT22;40337;52.978;6.310;2024-02-04T08:10:04;8.40;99.90
54429;DHT22;40337;52.978;6.310;2024-02-04T08:12:30;8.40;99.90
54429;DHT22;40337;52.978;6.310;2024-02-04T08:14:56;8.40;99.90
54429;DHT22;40337;52.978;6.310;2024-02-04T08:17:22;8.50;99.90
54429;DHT22;40337;52.978;6.310;2024-02-04T08:19:47;8.50;99.90
54429;DHT22;40337;52.978;6.310;2024-02-04T08:22:13;8.50;99.90
54429;DHT22;40337;52.978;6.310;2024-02-04T08:24:38;8.60;99.90
54429;DHT22;40337;52.978;6.310;2024-02-04T08:27:04;8.60;99.90
54429;DHT22;40337;52.978;6.310;2024-02-04T08:29:30;8.60;99.90
54429;DHT22;40337;52.978;6.310;2024-02-04T08:31:55;8.50;99.90
54429;DHT22;40337;52.978;6.310;2024-02-04T08:34:21;8.60;99.90
54429;DHT22;40337;52.978;6.310;2024-02-04T08:36:50;8.60;99.90
54429;DHT22;40337;52.978;6.310;2024-02-04T08:39:15;8.60;99.90
54429;DHT22;40337;52.978;6.310;2024-02-04T08:41:41;8.60;99.90
54429;DHT22;40337;52.978;6.310;2024-02-04T08:44:07;8.70;99.90
54429;DHT22;40337;52.978;6.310;2024-02-04T08:46:34;8.70;99.90
54429;DHT22;40337;52.978;6.310;2024-02-04T08:48:59;8.70;99.90
54429;DHT22;40337;52.978;6.310;2024-02-04T08:51:25;8.70;99.90
54429;DHT22;40337;52.978;6.310;2024-02-04T08:53:51;8.80;99.90
54429;DHT22;40337;52.978;6.310;2024-02-04T08:56:16;8.80;99.90
54429;DHT22;40337;52.978;6.310;2024-02-04T08:58:42;8.90;99.90
54429;DHT22;40337;52.978;6.310;2024-02-04T09:01:07;8.90;99.90
54429;DHT22;40337;52.978;6.310;2024-02-04T09:03:33;8.90;99.90
54429;DHT22;40337;52.978;6.310;2024-02-04T09:05:59;8.90;99.90
54429;DHT22;40337;52.978;6.310;2024-02-04T09:08:25;9.00;99.90
54429;DHT22;40337;52.978;6.310;2024-02-04T09:10:51;9.00;99.90
54429;DHT22;40337;52.978;6.310;2024-02-04T09:13:16;9.00;99.90
54429;DHT22;40337;52.978;6.310;2024-02-04T09:15:43;9.10;99.90
54429;DHT22;40337;52.978;6.310;2024-02-04T09:18:08;9.10;99.90
54429;DHT22;40337;52.978;6.310;2024-02-04T09:20:34;9.20;99.90
54429;DHT22;40337;52.978;6.310;2024-02-04T09:22:59;9.20;99.90
54429;DHT22;40337;52.978;6.310;2024-02-04T09:25:25;9.30;99.90
54429;DHT22;40337;52.978;6.310;2024-02-04T09:27:51;9.30;99.90
54429;DHT22;40337;52.978;6.310;2024-02-04T09:30:17;9.40;99.90
54429;DHT22;40337;52.978;6.310;2024-02-04T09:32:42;9.50;99.90
54429;DHT22;40337;52.978;6.310;2024-02-04T09:35:08;9.50;99.90
54429;DHT22;40337;52.978;6.310;2024-02-04T09:37:36;9.60;99.90
54429;DHT22;40337;52.978;6.310;2024-02-04T09:40:02;9.60;99.90
54429;DHT22;40337;52.978;6.310;2024-02-04T09:42:29;9.70;99.90
54429;DHT22;40337;52.978;6.310;2024-02-04T09:44:57;9.60;99.90
54429;DHT22;40337;52.978;6.310;2024-02-04T09:47:22;9.60;99.90
54429;DHT22;40337;52.978;6.310;2024-02-04T09:49:48;9.60;99.90
54429;DHT22;40337;52.978;6.310;2024-02-04T09:52:18;9.60;99.90
54429;DHT22;40337;52.978;6.310;2024-02-04T09:54:49;9.70;99.90
54429;DHT22;40337;52.978;6.310;2024-02-04T09:57:16;9.80;99.90
54429;DHT22;40337;52.978;6.310;2024-02-04T09:59:43;9.90;99.90
54429;DHT22;40337;52.978;6.310;2024-02-04T10:02:10;10.20;99.90
54429;DHT22;40337;52.978;6.310;2024-02-04T10:04:35;10.50;99.90
54429;DHT22;40337;52.978;6.310;2024-02-04T10:07:02;10.60;99.90
54429;DHT22;40337;52.978;6.310;2024-02-04T10:09:28;10.70;99.90
54429;DHT22;40337;52.978;6.310;2024-02-04T10:11:55;10.70;99.90
54429;DHT22;40337;52.978;6.310;2024-02-04T10:14:21;10.70;99.90
54429;DHT22;40337;52.978;6.310;2024-02-04T10:16:46;10.70;99.90
54429;DHT22;40337;52.978;6.310;2024-02-04T10:19:12;10.70;99.90
54429;DHT22;40337;52.978;6.310;2024-02-04T10:21:38;10.70;99.90
54429;DHT22;40337;52.978;6.310;2024-02-04T10:24:05;10.60;99.90
54429;DHT22;40337;52.978;6.310;2024-02-04T10:26:31;10.50;99.90
54429;DHT22;40337;52.978;6.310;2024-02-04T10:28:59;10.50;99.90
54429;DHT22;40337;52.978;6.310;2024-02-04T10:31:26;10.30;99.90
54429;DHT22;40337;52.978;6.310;2024-02-04T10:33:52;10.30;99.90
54429;DHT22;40337;52.978;6.310;2024-02-04T10:36:18;10.30;99.90
54429;DHT22;40337;52.978;6.310;2024-02-04T10:38:43;10.30;99.90
54429;DHT22;40337;52.978;6.310;2024-02-04T10:41:14;10.30;99.90
54429;DHT22;40337;52.978;6.310;2024-02-04T10:43:43;10.30;99.90
54429;DHT22;40337;52.978;6.310;2024-02-04T10:46:13;10.20;99.90
54429;DHT22;40337;52.978;6.310;2024-02-04T10:48:42;10.30;99.90
54429;DHT22;40337;52.978;6.310;2024-02-04T10:51:13;10.30;99.90
54429;DHT22;40337;52.978;6.310;2024-02-04T10:53:43;10.40;99.90
54429;DHT22;40337;52.978;6.310;2024-02-04T10:56:21;10.40;99.90
54429;DHT22;40337;52.978;6.310;2024-02-04T10:58:48;10.50;99.90
54429;DHT22;40337;52.978;6.310;2024-02-04T11:01:14;10.50;99.90
54429;DHT22;40337;52.978;6.310;2024-02-04T11:03:40;10.50;99.90
54429;DHT22;40337;52.978;6.310;2024-02-04T11:06:08;10.40;99.90
54429;DHT22;40337;52.978;6.310;2024-02-04T11:08:34;10.40;99.90
54429;DHT22;40337;52.978;6.310;2024-02-04T11:11:00;10.40;99.90
54429;DHT22;40337;52.978;6.310;2024-02-04T11:13:27;10.40;99.90
54429;DHT22;40337;52.978;6.310;2024-02-04T11:15:56;10.30;99.90
54429;DHT22;40337;52.978;6.310;2024-02-04T11:21:45;10.20;99.90
54429;DHT22;40337;52.978;6.310;2024-02-04T11:26:58;10.20;99.90
54429;DHT22;40337;52.978;6.310;2024-02-04T11:29:24;10.30;99.90
54429;DHT22;40337;52.978;6.310;2024-02-04T11:31:51;10.30;99.90
54429;DHT22;40337;52.978;6.310;2024-02-04T11:34:17;10.30;99.90
54429;DHT22;40337;52.978;6.310;2024-02-04T11:36:42;10.30;99.90
54429;DHT22;40337;52.978;6.310;2024-02-04T11:39:12;10.40;99.90
54429;DHT22;40337;52.978;6.310;2024-02-04T11:41:47;10.40;99.90
54429;DHT22;40337;52.978;6.310;2024-02-04T11:44:20;10.40;99.90
54429;DHT22;40337;52.978;6.310;2024-02-04T11:46:46;10.40;99.90
54429;DHT22;40337;52.978;6.310;2024-02-04T11:49:19;10.50;99.90
54429;DHT22;40337;52.978;6.310;2024-02-04T11:51:50;10.50;99.90
54429;DHT22;40337;52.978;6.310;2024-02-04T11:54:17;10.50;99.90
54429;DHT22;40337;52.978;6.310;2024-02-04T11:56:45;10.50;99.90
54429;DHT22;40337;52.978;6.310;2024-02-04T11:59:12;10.50;99.90
54429;DHT22;40337;52.978;6.310;2024-02-04T12:01:39;10.40;99.90
54429;DHT22;40337;52.978;6.310;2024-02-04T12:04:13;10.40;99.90
54429;DHT22;40337;52.978;6.310;2024-02-04T12:06:41;10.40;99.90
54429;DHT22;40337;52.978;6.310;2024-02-04T12:09:08;10.40;99.90
54429;DHT22;40337;52.978;6.310;2024-02-04T12:11:35;10.40;99.90
54429;DHT22;40337;52.978;6.310;2024-02-04T12:14:00;10.40;99.90
54429;DHT22;40337;52.978;6.310;2024-02-04T12:16:27;10.50;99.90
54429;DHT22;40337;52.978;6.310;2024-02-04T12:18:53;10.40;99.90
54429;DHT22;40337;52.978;6.310;2024-02-04T12:21:19;10.50;99.90
54429;DHT22;40337;52.978;6.310;2024-02-04T12:23:45;10.50;99.90
54429;DHT22;40337;52.978;6.310;2024-02-04T12:26:10;10.50;99.90
54429;DHT22;40337;52.978;6.310;2024-02-04T12:28:36;10.40;99.90
54429;DHT22;40337;52.978;6.310;2024-02-04T12:31:02;10.40;99.90
54429;DHT22;40337;52.978;6.310;2024-02-04T12:33:28;10.30;99.90
54429;DHT22;40337;52.978;6.310;2024-02-04T12:35:54;10.30;99.90
54429;DHT22;40337;52.978;6.310;2024-02-04T12:38:21;10.20;99.90
54429;DHT22;40337;52.978;6.310;2024-02-04T12:40:48;10.20;99.90
54429;DHT22;40337;52.978;6.310;2024-02-04T12:43:13;10.20;99.90
54429;DHT22;40337;52.978;6.310;2024-02-04T12:45:39;10.20;99.90
54429;DHT22;40337;52.978;6.310;2024-02-04T12:48:05;10.20;99.90
54429;DHT22;40337;52.978;6.310;2024-02-04T12:50:31;10.20;99.90
54429;DHT22;40337;52.978;6.310;2024-02-04T12:53:09;10.20;99.90
54429;DHT22;40337;52.978;6.310;2024-02-04T12:55:39;10.20;99.90
54429;DHT22;40337;52.978;6.310;2024-02-04T12:58:09;10.20;99.90
54429;DHT22;40337;52.978;6.310;2024-02-04T13:00:37;10.20;99.90
54429;DHT22;40337;52.978;6.310;2024-02-04T13:03:04;10.30;99.90
54429;DHT22;40337;52.978;6.310;2024-02-04T13:05:31;10.30;99.90
54429;DHT22;40337;52.978;6.310;2024-02-04T13:08:01;10.20;99.90
54429;DHT22;40337;52.978;6.310;2024-02-04T13:10:29;10.20;99.90
54429;DHT22;40337;52.978;6.310;2024-02-04T13:13:06;10.20;99.90
54429;DHT22;40337;52.978;6.310;2024-02-04T13:15:34;10.20;99.90
54429;DHT22;40337;52.978;6.310;2024-02-04T13:18:00;10.20;99.90
54429;DHT22;40337;52.978;6.310;2024-02-04T13:20:25;10.10;99.90
54429;DHT22;40337;52.978;6.310;2024-02-04T13:22:51;10.20;99.90
54429;DHT22;40337;52.978;6.310;2024-02-04T13:25:20;10.10;99.90
54429;DHT22;40337;52.978;6.310;2024-02-04T13:27:47;10.10;99.90
54429;DHT22;40337;52.978;6.310;2024-02-04T13:30:13;10.10;99.90
54429;DHT22;40337;52.978;6.310;2024-02-04T13:32:42;10.10;99.90
54429;DHT22;40337;52.978;6.310;2024-02-04T13:35:08;10.10;99.90
54429;DHT22;40337;52.978;6.310;2024-02-04T13:37:36;10.10;99.90
54429;DHT22;40337;52.978;6.310;2024-02-04T13:40:03;10.20;99.90
54429;DHT22;40337;52.978;6.310;2024-02-04T13:42:31;10.20;99.90
54429;DHT22;40337;52.978;6.310;2024-02-04T13:44:57;10.20;99.90
54429;DHT22;40337;52.978;6.310;2024-02-04T13:47:22;10.10;99.90
54429;DHT22;40337;52.978;6.310;2024-02-04T13:49:48;10.20;99.90
54429;DHT22;40337;52.978;6.310;2024-02-04T13:52:14;10.20;99.90
54429;DHT22;40337;52.978;6.310;2024-02-04T13:54:39;10.10;99.90
54429;DHT22;40337;52.978;6.310;2024-02-04T13:57:05;10.20;99.90
54429;DHT22;40337;52.978;6.310;2024-02-04T13:59:31;10.20;99.90
54429;DHT22;40337;52.978;6.310;2024-02-04T14:01:56;10.20;99.90
54429;DHT22;40337;52.978;6.310;2024-02-04T14:04:22;10.10;99.90
54429;DHT22;40337;52.978;6.310;2024-02-04T14:06:48;10.10;99.90
54429;DHT22;40337;52.978;6.310;2024-02-04T14:09:13;10.10;99.90
54429;DHT22;40337;52.978;6.310;2024-02-04T14:11:39;10.10;99.90
54429;DHT22;40337;52.978;6.310;2024-02-04T14:14:04;10.10;99.90
54429;DHT22;40337;52.978;6.310;2024-02-04T14:16:30;10.10;99.90
54429;DHT22;40337;52.978;6.310;2024-02-04T14:18:56;10.10;99.90
54429;DHT22;40337;52.978;6.310;2024-02-04T14:21:21;10.10;99.90
54429;DHT22;40337;52.978;6.310;2024-02-04T14:23:48;10.10;99.90
54429;DHT22;40337;52.978;6.310;2024-02-04T14:26:20;10.10;99.90
54429;DHT22;40337;52.978;6.310;2024-02-04T14:28:46;10.00;99.90
54429;DHT22;40337;52.978;6.310;2024-02-04T14:31:12;10.10;99.90
54429;DHT22;40337;52.978;6.310;2024-02-04T14:33:37;10.10;99.90
54429;DHT22;40337;52.978;6.310;2024-02-04T14:36:03;10.10;99.90
54429;DHT22;40337;52.978;6.310;2024-02-04T14:38:29;10.10;99.90
54429;DHT22;40337;52.978;6.310;2024-02-04T14:40:58;10.10;99.90
54429;DHT22;40337;52.978;6.310;2024-02-04T14:43:27;10.10;99.90
54429;DHT22;40337;52.978;6.310;2024-02-04T14:45:53;10.10;99.90
54429;DHT22;40337;52.978;6.310;2024-02-04T14:48:18;10.10;99.90
54429;DHT22;40337;52.978;6.310;2024-02-04T14:50:44;10.10;99.90
54429;DHT22;40337;52.978;6.310;2024-02-04T14:53:09;10.10;99.90
54429;DHT22;40337;52.978;6.310;2024-02-04T14:55:35;10.10;99.90
54429;DHT22;40337;52.978;6.310;2024-02-04T14:58:01;10.20;99.90
54429;DHT22;40337;52.978;6.310;2024-02-04T15:00:26;10.20;99.90
54429;DHT22;40337;52.978;6.310;2024-02-04T15:02:56;10.20;99.90
54429;DHT22;40337;52.978;6.310;2024-02-04T15:05:22;10.20;99.90
54429;DHT22;40337;52.978;6.310;2024-02-04T15:07:49;10.20;99.90
54429;DHT22;40337;52.978;6.310;2024-02-04T15:10:17;10.20;99.90
54429;DHT22;40337;52.978;6.310;2024-02-04T15:12:43;10.20;99.90
54429;DHT22;40337;52.978;6.310;2024-02-04T15:15:09;10.20;99.90
54429;DHT22;40337;52.978;6.310;2024-02-04T15:17:35;10.20;99.90
54429;DHT22;40337;52.978;6.310;2024-02-04T15:20:01;10.20;99.90
54429;DHT22;40337;52.978;6.310;2024-02-04T15:22:28;10.20;99.90
54429;DHT22;40337;52.978;6.310;2024-02-04T15:24:54;10.30;99.90
54429;DHT22;40337;52.978;6.310;2024-02-04T15:27:20;10.30;99.90
54429;DHT22;40337;52.978;6.310;2024-02-04T15:29:50;10.30;99.90
54429;DHT22;40337;52.978;6.310;2024-02-04T15:32:16;10.30;99.90
54429;DHT22;40337;52.978;6.310;2024-02-04T15:34:42;10.30;99.90
54429;DHT22;40337;52.978;6.310;2024-02-04T15:37:08;10.20;99.90
54429;DHT22;40337;52.978;6.310;2024-02-04T15:39:35;10.20;99.90
54429;DHT22;40337;52.978;6.310;2024-02-04T15:42:03;10.20;99.90
54429;DHT22;40337;52.978;6.310;2024-02-04T15:44:30;10.20;99.90